createdAt,value
2019-05-03T00:00:46.405Z,44.57
2019-05-03T00:03:16.402Z,44.65
2019-05-03T00:05:52.496Z,44.17
2019-05-03T00:08:22.282Z,44.07
2019-05-03T00:10:51.975Z,44.27
2019-05-03T00:13:21.956Z,44.46
2019-05-03T00:16:13.395Z,44.34
2019-05-03T00:18:43.174Z,43.89
2019-05-03T00:21:13.070Z,43.71
2019-05-03T00:23:42.741Z,43.69
2019-05-03T00:26:12.401Z,43.59
2019-05-03T00:28:42.644Z,43.54
2019-05-03T00:31:12.806Z,43.40
2019-05-03T00:33:44.506Z,43.60
2019-05-03T00:36:26.792Z,43.51
2019-05-03T00:39:01.950Z,43.96
2019-05-03T00:41:32.099Z,43.48
2019-05-03T00:44:02.221Z,43.45
2019-05-03T00:46:32.762Z,43.67
2019-05-03T00:49:03.786Z,43.90
2019-05-03T00:51:33.525Z,43.84
2019-05-03T00:54:03.141Z,43.44
2019-05-03T00:56:32.798Z,43.70
2019-05-03T00:59:02.448Z,43.34
2019-05-03T01:01:32.193Z,43.94
2019-05-03T01:04:01.937Z,43.39
2019-05-03T01:06:31.900Z,43.01
2019-05-03T01:09:02.659Z,43.17
2019-05-03T01:11:32.511Z,43.04
2019-05-03T01:14:02.646Z,43.11
2019-05-03T01:16:32.568Z,42.85
2019-05-03T01:19:02.669Z,42.98
2019-05-03T01:21:32.618Z,43.62
2019-05-03T01:24:02.281Z,43.12
2019-05-03T01:26:32.070Z,43.01
2019-05-03T01:29:02.713Z,42.97
2019-05-03T01:31:32.473Z,42.81
2019-05-03T01:34:02.424Z,45.45
2019-05-03T01:36:32.238Z,44.55
2019-05-03T01:39:02.192Z,46.75
2019-05-03T01:41:32.417Z,45.83
2019-05-03T01:44:02.148Z,46.66
2019-05-03T01:46:31.902Z,48.22
2019-05-03T01:49:19.063Z,48.36
2019-05-03T01:52:13.558Z,49.02
2019-05-03T01:54:43.999Z,48.19
2019-05-03T01:57:13.714Z,49.79
2019-05-03T01:59:43.423Z,49.70
2019-05-03T02:02:32.530Z,49.47
2019-05-03T02:05:22.505Z,51.95
2019-05-03T02:07:52.341Z,51.41
2019-05-03T02:10:22.643Z,51.03
2019-05-03T02:12:52.369Z,52.06
2019-05-03T02:15:22.234Z,52.60
2019-05-03T02:17:52.111Z,51.99
2019-05-03T02:20:22.028Z,50.01
2019-05-03T02:22:52.227Z,49.36
2019-05-03T02:25:22.021Z,48.28
2019-05-03T02:27:52.713Z,48.42
2019-05-03T02:30:24.948Z,48.21
2019-05-03T02:32:54.111Z,50.74
2019-05-03T02:35:23.852Z,49.33
2019-05-03T02:37:54.633Z,47.82
2019-05-03T02:40:25.081Z,48.73
2019-05-03T02:43:12.314Z,49.50
2019-05-03T02:45:57.202Z,48.82
2019-05-03T02:48:36.234Z,49.98
2019-05-03T02:51:06.639Z,50.08
2019-05-03T02:53:36.638Z,49.90
2019-05-03T02:56:15.048Z,51.08
2019-05-03T02:58:37.643Z,52.03
2019-05-03T03:01:07.555Z,54.40
2019-05-03T03:03:37.980Z,54.62
2019-05-03T03:06:07.860Z,55.87
2019-05-03T03:08:39.201Z,56.84
2019-05-03T03:11:09.690Z,56.16
2019-05-03T03:13:40.329Z,55.21
2019-05-03T03:16:11.331Z,55.26
2019-05-03T03:18:45.360Z,55.46
2019-05-03T03:21:17.303Z,55.34
2019-05-03T03:24:02.403Z,54.30
2019-05-03T03:26:39.272Z,53.62
2019-05-03T03:29:06.285Z,55.69
2019-05-03T03:32:19.360Z,54.80
2019-05-03T03:35:11.293Z,50.03
2019-05-03T03:37:36.670Z,49.48
2019-05-03T03:40:06.462Z,49.39
2019-05-03T03:42:38.071Z,48.92
2019-05-03T03:45:08.231Z,48.98
2019-05-03T03:47:40.746Z,52.72
2019-05-03T03:50:10.769Z,53.84
2019-05-03T03:52:45.161Z,53.77
2019-05-03T03:55:16.112Z,55.12
2019-05-03T03:57:46.976Z,56.44
2019-05-03T04:00:17.313Z,56.55
2019-05-03T04:02:47.124Z,56.94
2019-05-03T04:05:16.781Z,58.25
2019-05-03T04:07:46.633Z,57.19
2019-05-03T04:10:16.788Z,56.54
2019-05-03T04:12:48.218Z,55.03
2019-05-03T04:15:29.791Z,52.86
2019-05-03T04:18:06.706Z,51.79
2019-05-03T04:20:37.609Z,50.92
2019-05-03T04:23:07.768Z,51.56
2019-05-03T04:25:37.786Z,49.98
2019-05-03T04:28:08.434Z,50.41
2019-05-03T04:30:38.039Z,49.12
2019-05-03T04:33:08.108Z,54.72
2019-05-03T04:35:37.791Z,55.85
2019-05-03T04:38:07.680Z,58.53
2019-05-03T04:40:37.468Z,56.61
2019-05-03T04:43:07.219Z,59.42
2019-05-03T04:45:37.254Z,60.64
2019-05-03T04:48:07.393Z,58.60
2019-05-03T04:50:37.747Z,57.09
2019-05-03T04:53:07.434Z,59.85
2019-05-03T04:55:37.146Z,58.91
2019-05-03T04:58:06.891Z,59.43
2019-05-03T05:00:36.529Z,58.70
2019-05-03T05:03:06.402Z,61.22
2019-05-03T05:05:36.598Z,61.79
2019-05-03T05:08:07.031Z,63.19
2019-05-03T05:10:36.835Z,64.35
2019-05-03T05:13:06.570Z,65.33
2019-05-03T05:15:36.164Z,64.98
2019-05-03T05:18:26.174Z,65.00
2019-05-03T05:21:06.068Z,62.72
2019-05-03T05:23:35.701Z,63.24
2019-05-03T05:26:14.518Z,62.59
2019-05-03T05:28:57.242Z,62.31
2019-05-03T05:31:26.978Z,60.90
2019-05-03T05:33:56.730Z,61.86
2019-05-03T05:36:26.329Z,59.03
2019-05-03T05:38:55.974Z,57.80
2019-05-03T05:41:25.611Z,57.88
2019-05-03T05:43:55.242Z,54.63
2019-05-03T05:46:27.240Z,57.05
2019-05-03T05:48:56.972Z,55.96
2019-05-03T05:51:26.634Z,52.51
2019-05-03T05:53:56.250Z,55.06
2019-05-03T05:56:49.677Z,52.66
2019-05-03T05:59:27.163Z,51.85
2019-05-03T06:02:00.559Z,51.64
2019-05-03T06:04:30.269Z,50.10
2019-05-03T06:07:18.791Z,49.00
2019-05-03T06:10:05.380Z,48.12
2019-05-03T06:12:48.847Z,46.99
2019-05-03T06:15:37.439Z,48.00
2019-05-03T06:18:14.558Z,47.37
2019-05-03T06:20:57.497Z,46.75
2019-05-03T06:23:31.465Z,46.58
2019-05-03T06:26:01.122Z,46.46
2019-05-03T06:28:35.085Z,46.53
2019-05-03T06:31:19.565Z,45.90
2019-05-03T06:33:48.445Z,46.44
2019-05-03T06:36:18.040Z,45.90
2019-05-03T06:38:47.692Z,45.75
2019-05-03T06:41:17.286Z,43.88
2019-05-03T06:43:48.751Z,45.15
2019-05-03T06:46:23.490Z,45.24
2019-05-03T06:48:51.272Z,42.00
2019-05-03T06:51:20.935Z,43.64
2019-05-03T06:53:50.776Z,40.47
2019-05-03T06:56:25.176Z,39.84
2019-05-03T06:58:51.924Z,42.21
2019-05-03T07:01:28.202Z,40.51
2019-05-03T07:04:16.719Z,41.05
2019-05-03T07:07:08.288Z,41.79
2019-05-03T07:09:51.276Z,41.35
2019-05-03T07:12:20.936Z,39.94
2019-05-03T07:14:50.636Z,39.33
2019-05-03T07:17:20.243Z,39.80
2019-05-03T07:19:49.968Z,39.38
2019-05-03T07:22:19.601Z,38.96
2019-05-03T07:24:49.183Z,37.40
2019-05-03T07:27:18.788Z,39.16
2019-05-03T07:29:48.426Z,39.11
2019-05-03T07:32:18.097Z,38.00
2019-05-03T07:34:47.986Z,38.00
2019-05-03T07:37:17.693Z,37.75
2019-05-03T07:39:47.294Z,37.63
2019-05-03T07:42:16.875Z,38.75
2019-05-03T07:44:46.437Z,38.31
2019-05-03T07:47:16.104Z,38.02
2019-05-03T07:49:45.670Z,36.90
2019-05-03T07:52:15.286Z,38.02
2019-05-03T07:54:45.265Z,34.99
2019-05-03T07:57:41.642Z,34.05
2019-05-03T08:00:16.111Z,34.07
2019-05-03T08:02:45.733Z,36.01
2019-05-03T08:05:15.877Z,35.25
2019-05-03T08:07:46.288Z,33.45
2019-05-03T08:10:16.332Z,34.54
2019-05-03T08:12:45.931Z,34.45
2019-05-03T08:15:15.807Z,34.40
2019-05-03T08:17:45.452Z,31.66
2019-05-03T08:20:15.342Z,32.23
2019-05-03T08:22:44.913Z,32.55
2019-05-03T08:25:14.722Z,32.13
2019-05-03T08:27:44.650Z,32.29
2019-05-03T08:30:19.834Z,32.79
2019-05-03T08:32:57.188Z,32.63
2019-05-03T08:35:31.926Z,32.94
2019-05-03T08:38:02.183Z,32.21
2019-05-03T08:40:36.123Z,32.41
2019-05-03T08:43:05.924Z,32.18
2019-05-03T08:45:35.752Z,30.71
2019-05-03T08:48:05.697Z,30.85
2019-05-03T08:50:35.437Z,30.23
2019-05-03T08:53:05.332Z,29.64
2019-05-03T08:55:35.372Z,30.54
2019-05-03T08:58:05.390Z,29.85
2019-05-03T09:00:37.071Z,29.59
2019-05-03T09:03:06.814Z,28.51
2019-05-03T09:05:36.486Z,30.99
2019-05-03T09:08:06.827Z,29.46
2019-05-03T09:10:42.659Z,27.40
2019-05-03T09:13:14.725Z,28.60
2019-05-03T09:15:45.117Z,28.23
2019-05-03T09:18:27.694Z,26.79
2019-05-03T09:20:47.551Z,26.68
2019-05-03T09:23:17.313Z,28.12
2019-05-03T09:25:46.999Z,26.48
2019-05-03T09:28:16.750Z,27.60
2019-05-03T09:30:46.539Z,25.35
2019-05-03T09:33:16.222Z,26.02
2019-05-03T09:35:45.940Z,24.68
2019-05-03T09:38:15.651Z,26.51
2019-05-03T09:40:45.622Z,24.73
2019-05-03T09:43:15.340Z,25.02
2019-05-03T09:45:45.689Z,24.61
2019-05-03T09:48:15.502Z,26.68
2019-05-03T09:50:45.413Z,25.97
2019-05-03T09:53:17.153Z,26.81
2019-05-03T09:55:46.768Z,24.97
2019-05-03T09:58:16.340Z,25.09
2019-05-03T10:00:46.927Z,25.37
2019-05-03T10:03:16.564Z,25.98
2019-05-03T10:05:46.276Z,25.74
2019-05-03T10:08:15.995Z,24.16
2019-05-03T10:11:05.499Z,24.05
2019-05-03T10:13:35.554Z,23.23
2019-05-03T10:16:06.732Z,23.23
2019-05-03T10:18:36.849Z,23.84
2019-05-03T10:21:06.616Z,26.40
2019-05-03T10:23:39.962Z,24.36
2019-05-03T10:26:10.438Z,24.82
2019-05-03T10:28:40.668Z,23.77
2019-05-03T10:31:10.882Z,24.10
2019-05-03T10:34:01.882Z,26.03
2019-05-03T10:36:31.607Z,24.50
2019-05-03T10:39:01.356Z,26.23
2019-05-03T10:41:30.980Z,23.26
2019-05-03T10:44:00.626Z,22.18
2019-05-03T10:46:30.290Z,23.56
2019-05-03T10:48:59.878Z,23.16
2019-05-03T10:51:31.738Z,21.62
2019-05-03T10:54:01.342Z,22.62
2019-05-03T10:56:55.914Z,22.27
2019-05-03T10:59:25.413Z,22.93
2019-05-03T11:02:22.095Z,23.35
2019-05-03T11:04:51.768Z,22.55
2019-05-03T11:07:21.496Z,21.33
2019-05-03T11:09:52.594Z,22.06
2019-05-03T11:12:22.539Z,22.53
2019-05-03T11:14:52.207Z,22.51
2019-05-03T11:17:21.860Z,21.77
2019-05-03T11:19:51.481Z,22.95
2019-05-03T11:22:21.095Z,20.87
2019-05-03T11:24:50.814Z,20.74
2019-05-03T11:27:25.342Z,20.13
2019-05-03T11:29:55.558Z,20.91
2019-05-03T11:32:40.063Z,20.24
2019-05-03T11:35:41.007Z,20.37
2019-05-03T11:38:18.293Z,19.33
2019-05-03T11:40:47.976Z,19.54
2019-05-03T11:43:19.242Z,19.38
2019-05-03T11:45:48.849Z,20.60
2019-05-03T11:48:19.154Z,20.04
2019-05-03T11:50:48.792Z,20.73
2019-05-03T11:53:18.498Z,20.85
2019-05-03T11:55:48.111Z,20.74
2019-05-03T11:58:22.455Z,20.90
2019-05-03T12:01:20.132Z,20.99
2019-05-03T12:03:55.536Z,20.39
2019-05-03T12:06:25.182Z,20.23
2019-05-03T12:08:55.527Z,20.64
2019-05-03T12:11:26.130Z,20.87
2019-05-03T12:14:20.584Z,21.69
2019-05-03T12:17:14.472Z,20.30
2019-05-03T12:19:31.065Z,21.25
2019-05-03T12:21:59.134Z,20.91
2019-05-03T12:24:29.795Z,20.58
2019-05-03T12:26:59.974Z,21.64
2019-05-03T12:29:29.721Z,21.38
2019-05-03T12:31:59.313Z,22.56
2019-05-03T12:34:28.924Z,21.61
2019-05-03T12:36:58.490Z,21.22
2019-05-03T12:39:30.532Z,22.37
2019-05-03T12:41:59.514Z,22.81
2019-05-03T12:44:29.078Z,21.76
2019-05-03T12:46:58.697Z,21.33
2019-05-03T12:49:28.388Z,19.43
2019-05-03T12:51:58.112Z,18.83
2019-05-03T12:54:27.698Z,20.99
2019-05-03T12:56:57.321Z,18.48
2019-05-03T12:59:45.773Z,19.24
2019-05-03T13:02:29.952Z,20.82
2019-05-03T13:05:04.876Z,20.65
2019-05-03T13:07:45.643Z,19.82
2019-05-03T13:10:21.647Z,22.08
2019-05-03T13:12:52.474Z,21.86
2019-05-03T13:15:19.950Z,22.67
2019-05-03T13:17:49.565Z,21.50
2019-05-03T13:20:19.827Z,21.62
2019-05-03T13:22:49.455Z,21.61
2019-05-03T13:25:19.187Z,21.11
2019-05-03T13:27:48.812Z,20.71
2019-05-03T13:30:18.559Z,22.62
2019-05-03T13:32:48.798Z,22.16
2019-05-03T13:35:19.410Z,20.96
2019-05-03T13:37:50.022Z,21.32
2019-05-03T13:40:19.752Z,22.91
2019-05-03T13:42:57.165Z,20.73
2019-05-03T13:45:20.903Z,22.59
2019-05-03T13:47:50.690Z,20.41
2019-05-03T13:50:20.398Z,19.87
2019-05-03T13:52:50.073Z,21.26
2019-05-03T13:55:21.230Z,22.33
2019-05-03T13:57:50.857Z,20.68
2019-05-03T14:00:24.676Z,21.56
2019-05-03T14:02:56.361Z,23.26
2019-05-03T14:05:26.120Z,23.78
2019-05-03T14:07:56.350Z,23.28
2019-05-03T14:10:26.186Z,23.74
2019-05-03T14:12:55.921Z,23.69
2019-05-03T14:15:25.791Z,22.79
2019-05-03T14:17:55.622Z,21.66
2019-05-03T14:20:50.131Z,23.65
2019-05-03T14:23:19.847Z,23.69
2019-05-03T14:25:49.514Z,23.65
2019-05-03T14:28:19.246Z,25.66
2019-05-03T14:30:48.882Z,25.37
2019-05-03T14:33:18.536Z,27.04
2019-05-03T14:35:48.236Z,27.28
2019-05-03T14:38:17.934Z,28.18
2019-05-03T14:40:47.554Z,24.90
2019-05-03T14:43:17.197Z,26.98
2019-05-03T14:45:46.947Z,28.10
2019-05-03T14:48:17.139Z,27.58
2019-05-03T14:50:46.820Z,27.45
2019-05-03T14:53:16.433Z,28.84
2019-05-03T14:55:51.328Z,27.87
2019-05-03T14:58:56.981Z,27.05
2019-05-03T15:01:35.600Z,28.48
2019-05-03T15:04:05.915Z,27.50
2019-05-03T15:06:36.299Z,27.14
2019-05-03T15:09:07.894Z,28.09
2019-05-03T15:11:37.513Z,29.41
2019-05-03T15:14:07.140Z,29.01
2019-05-03T15:16:38.441Z,28.91
2019-05-03T15:19:08.137Z,29.95
2019-05-03T15:21:37.784Z,29.79
2019-05-03T15:24:08.941Z,29.22
2019-05-03T15:26:39.075Z,29.98
2019-05-03T15:29:08.693Z,30.05
2019-05-03T15:31:38.375Z,31.07
2019-05-03T15:34:09.359Z,31.38
2019-05-03T15:36:38.967Z,31.25
2019-05-03T15:39:09.117Z,31.76
2019-05-03T15:41:38.823Z,31.20
2019-05-03T15:44:19.407Z,31.99
2019-05-03T15:47:11.051Z,31.48
2019-05-03T15:49:40.751Z,31.77
2019-05-03T15:52:10.370Z,31.26
2019-05-03T15:54:40.524Z,31.24
2019-05-03T15:57:10.137Z,32.13
2019-05-03T15:59:39.771Z,30.79
2019-05-03T16:02:10.873Z,31.86
2019-05-03T16:04:40.495Z,32.64
2019-05-03T16:07:10.221Z,30.89
2019-05-03T16:09:39.838Z,31.95
2019-05-03T16:12:09.447Z,32.10
2019-05-03T16:14:39.126Z,31.88
2019-05-03T16:17:08.776Z,31.63
2019-05-03T16:19:38.408Z,31.93
2019-05-03T16:22:08.830Z,32.69
2019-05-03T16:24:38.889Z,33.03
2019-05-03T16:27:36.747Z,32.42
2019-05-03T16:30:25.622Z,33.05
2019-05-03T16:32:55.387Z,32.81
2019-05-03T16:35:25.625Z,32.46
2019-05-03T16:37:55.438Z,32.42
2019-05-03T16:40:26.602Z,31.93
2019-05-03T16:42:56.236Z,31.86
2019-05-03T16:45:26.071Z,31.62
2019-05-03T16:47:56.706Z,31.37
2019-05-03T16:50:26.511Z,31.21
2019-05-03T16:52:56.125Z,31.17
2019-05-03T16:55:25.971Z,30.67
2019-05-03T16:57:55.611Z,30.98
2019-05-03T17:00:25.506Z,30.34
2019-05-03T17:02:56.851Z,30.28
2019-05-03T17:05:45.097Z,30.07
2019-05-03T17:08:21.728Z,30.33
2019-05-03T17:10:52.199Z,30.73
2019-05-03T17:13:21.844Z,30.59
2019-05-03T17:15:51.531Z,30.61
2019-05-03T17:18:21.724Z,30.95
2019-05-03T17:20:51.435Z,30.89
2019-05-03T17:23:21.063Z,31.08
2019-05-03T17:25:50.676Z,31.03
2019-05-03T17:28:20.537Z,30.83
2019-05-03T17:30:50.177Z,30.65
2019-05-03T17:33:19.837Z,30.80
2019-05-03T17:35:49.466Z,31.12
2019-05-03T17:38:19.059Z,30.98
2019-05-03T17:41:11.233Z,30.66
2019-05-03T17:44:02.380Z,30.79
2019-05-03T17:46:32.047Z,30.03
2019-05-03T17:49:02.455Z,29.91
2019-05-03T17:51:45.607Z,30.70
2019-05-03T17:54:33.473Z,30.82
2019-05-03T17:57:19.553Z,30.37
2019-05-03T17:59:55.104Z,30.14
2019-05-03T18:02:35.226Z,29.54
2019-05-03T18:05:25.134Z,29.60
2019-05-03T18:08:13.000Z,29.37
2019-05-03T18:10:45.135Z,29.23
2019-05-03T18:13:15.839Z,29.16
2019-05-03T18:15:45.544Z,28.75
2019-05-03T18:18:15.811Z,29.12
2019-05-03T18:20:46.821Z,29.30
2019-05-03T18:23:17.166Z,28.97
2019-05-03T18:25:47.299Z,29.30
2019-05-03T18:28:17.074Z,29.12
2019-05-03T18:30:46.758Z,29.45
2019-05-03T18:33:16.516Z,29.25
2019-05-03T18:35:48.283Z,29.25
2019-05-03T18:38:18.081Z,29.87
2019-05-03T18:40:48.861Z,30.13
2019-05-03T18:43:27.650Z,30.13
2019-05-03T18:46:17.707Z,30.33
2019-05-03T18:48:47.888Z,30.43
2019-05-03T18:51:17.542Z,30.84
2019-05-03T18:53:47.295Z,30.96
2019-05-03T18:56:18.513Z,31.22
2019-05-03T18:58:48.214Z,31.24
2019-05-03T19:01:18.300Z,31.63
2019-05-03T19:03:51.102Z,31.63
2019-05-03T19:06:20.861Z,31.33
2019-05-03T19:09:08.103Z,31.48
2019-05-03T19:11:46.369Z,31.54
2019-05-03T19:14:17.824Z,31.73
2019-05-03T19:17:05.268Z,31.62
2019-05-03T19:19:38.684Z,31.25
2019-05-03T19:22:08.300Z,31.64
2019-05-03T19:24:37.979Z,31.47
2019-05-03T19:27:09.639Z,31.02
2019-05-03T19:29:40.005Z,30.92
2019-05-03T19:32:10.112Z,30.91
2019-05-03T19:34:50.060Z,30.92
2019-05-03T19:37:11.839Z,30.64
2019-05-03T19:39:41.485Z,30.88
2019-05-03T19:42:11.410Z,30.94
2019-05-03T19:44:45.295Z,31.08
2019-05-03T19:47:15.780Z,30.97
2019-05-03T19:49:46.155Z,31.09
2019-05-03T19:52:18.805Z,31.30
2019-05-03T19:54:48.600Z,30.80
2019-05-03T19:57:20.023Z,30.42
2019-05-03T19:59:51.595Z,29.99
2019-05-03T20:02:39.306Z,30.22
2019-05-03T20:05:31.561Z,30.39
2019-05-03T20:08:18.268Z,30.16
2019-05-03T20:10:48.661Z,30.55
2019-05-03T20:13:31.894Z,30.68
2019-05-03T20:15:52.430Z,30.80
2019-05-03T20:18:22.056Z,31.04
2019-05-03T20:20:51.866Z,30.91
2019-05-03T20:23:21.583Z,30.90
2019-05-03T20:25:51.342Z,31.40
2019-05-03T20:28:21.061Z,31.43
2019-05-03T20:30:51.125Z,31.33
2019-05-03T20:33:21.377Z,31.46
2019-05-03T20:35:54.322Z,31.46
2019-05-03T20:38:24.591Z,31.70
2019-05-03T20:40:57.267Z,31.90
2019-05-03T20:43:41.593Z,31.95
2019-05-03T20:46:15.454Z,32.26
2019-05-03T20:48:47.376Z,32.66
2019-05-03T20:51:17.496Z,32.46
2019-05-03T20:53:47.163Z,31.55
2019-05-03T20:56:16.932Z,32.05
2019-05-03T20:58:47.194Z,32.73
2019-05-03T21:01:16.848Z,32.79
2019-05-03T21:03:46.961Z,34.12
2019-05-03T21:06:16.592Z,35.43
2019-05-03T21:08:52.946Z,37.10
2019-05-03T21:11:19.078Z,37.32
2019-05-03T21:13:50.222Z,37.93
2019-05-03T21:16:39.345Z,38.75
2019-05-03T21:19:24.760Z,40.30
2019-05-03T21:22:01.853Z,41.26
2019-05-03T21:25:00.185Z,42.39
2019-05-03T21:27:30.457Z,42.79
2019-05-03T21:30:01.452Z,44.28
2019-05-03T21:32:31.175Z,43.73
2019-05-03T21:35:00.943Z,43.78
2019-05-03T21:37:31.795Z,44.38
2019-05-03T21:40:01.485Z,44.39
2019-05-03T21:42:31.542Z,45.23
2019-05-03T21:45:01.753Z,45.00
2019-05-03T21:47:41.062Z,44.84
2019-05-03T21:50:14.745Z,45.56
2019-05-03T21:52:45.786Z,46.23
2019-05-03T21:55:16.169Z,46.98
2019-05-03T21:57:45.770Z,47.17
2019-05-03T22:00:16.994Z,47.45
2019-05-03T22:02:47.064Z,47.63
2019-05-03T22:05:17.656Z,46.57
2019-05-03T22:07:47.465Z,46.85
2019-05-03T22:10:17.398Z,46.99
2019-05-03T22:12:47.067Z,47.25
2019-05-03T22:15:32.255Z,47.17
2019-05-03T22:18:12.815Z,47.35
2019-05-03T22:20:50.230Z,47.64
2019-05-03T22:23:37.378Z,47.20
2019-05-03T22:26:07.668Z,46.66
2019-05-03T22:28:37.447Z,45.95
2019-05-03T22:31:08.015Z,45.08
2019-05-03T22:33:37.635Z,44.27
2019-05-03T22:36:08.994Z,43.55
2019-05-03T22:38:39.615Z,42.51
2019-05-03T22:41:09.858Z,41.31
2019-05-03T22:43:39.602Z,40.57
2019-05-03T22:46:09.661Z,40.39
2019-05-03T22:48:40.334Z,39.93
2019-05-03T22:51:10.036Z,39.61
2019-05-03T22:53:39.788Z,39.22
2019-05-03T22:56:09.484Z,38.97
2019-05-03T22:58:39.460Z,39.07
2019-05-03T23:01:10.096Z,38.93
2019-05-03T23:03:44.840Z,38.58
2019-05-03T23:06:21.980Z,38.35
2019-05-03T23:08:46.620Z,38.06
2019-05-03T23:11:16.278Z,38.02
2019-05-03T23:14:01.776Z,37.45
2019-05-03T23:16:35.425Z,37.25
2019-05-03T23:19:05.733Z,36.90
2019-05-03T23:21:50.579Z,37.02
2019-05-03T23:24:20.320Z,36.95
2019-05-03T23:26:50.411Z,37.20
2019-05-03T23:29:20.117Z,37.56
2019-05-03T23:31:50.380Z,38.00
2019-05-03T23:34:24.766Z,39.22
2019-05-03T23:36:55.705Z,37.28
2019-05-03T23:39:25.774Z,37.38
2019-05-03T23:41:56.390Z,38.31
2019-05-03T23:44:25.989Z,39.91
2019-05-03T23:47:09.322Z,40.95
2019-05-03T23:49:39.690Z,40.97
2019-05-03T23:52:26.750Z,41.36
2019-05-03T23:54:58.461Z,41.91
2019-05-03T23:57:28.525Z,41.62
2019-05-03T23:59:58.771Z,41.35
